createdAt,value
2022-08-19T00:05:32.630Z,26.69
2022-08-19T00:11:18.569Z,26.63
2022-08-19T00:17:09.051Z,26.61
2022-08-19T00:22:52.332Z,26.57
2022-08-19T00:28:36.138Z,26.55
2022-08-19T00:34:19.830Z,26.5
2022-08-19T00:40:04.374Z,26.49
2022-08-19T00:45:48.889Z,26.44
2022-08-19T00:51:32.323Z,26.38
2022-08-19T00:57:18.015Z,26.32
2022-08-19T01:03:01.420Z,26.27
2022-08-19T01:08:44.763Z,26.26
2022-08-19T01:14:31.735Z,26.23
2022-08-19T01:20:19.402Z,26.2
2022-08-19T01:26:04.081Z,26.14
2022-08-19T01:31:49.614Z,26.09
2022-08-19T01:37:39.080Z,26.04
2022-08-19T01:43:22.327Z,25.99
2022-08-19T01:49:06.475Z,25.97
2022-08-19T01:54:49.839Z,25.92
2022-08-19T02:00:33.500Z,25.86
2022-08-19T02:06:16.825Z,25.81
2022-08-19T02:12:05.422Z,25.78
2022-08-19T02:17:49.888Z,25.74
2022-08-19T02:23:33.169Z,25.72
2022-08-19T02:29:16.877Z,25.68
2022-08-19T02:35:00.400Z,25.65
2022-08-19T02:40:55.486Z,25.68
2022-08-19T02:46:38.843Z,25.63
2022-08-19T02:52:23.379Z,25.59
2022-08-19T02:58:07.305Z,25.57
2022-08-19T03:03:51.839Z,25.55
2022-08-19T03:09:37.310Z,25.55
2022-08-19T03:15:20.679Z,25.51
2022-08-19T03:21:04.198Z,25.49
2022-08-19T03:26:54.166Z,25.45
2022-08-19T03:32:45.390Z,25.41
2022-08-19T03:38:38.696Z,25.37
2022-08-19T03:44:23.499Z,25.33
2022-08-19T03:50:07.319Z,25.28
2022-08-19T03:55:50.606Z,25.22
2022-08-19T04:01:35.277Z,25.17
2022-08-19T04:07:20.639Z,25.13
2022-08-19T04:13:04.005Z,25.07
2022-08-19T04:18:48.292Z,25.03
2022-08-19T04:24:32.046Z,24.99
2022-08-19T04:30:17.174Z,24.96
2022-08-19T04:36:00.574Z,24.93
2022-08-19T04:41:43.882Z,24.93
2022-08-19T04:47:47.304Z,24.93
2022-08-19T04:53:34.708Z,24.93
2022-08-19T04:59:21.719Z,24.91
2022-08-19T05:05:06.590Z,24.9
2022-08-19T05:10:51.334Z,24.9
2022-08-19T05:16:34.902Z,24.74
2022-08-19T05:22:18.414Z,24.4
2022-08-19T05:28:01.722Z,24.08
2022-08-19T05:33:45.178Z,23.9
2022-08-19T05:39:30.751Z,23.81
2022-08-19T05:45:14.663Z,23.73
2022-08-19T05:50:57.876Z,23.71
2022-08-19T05:56:43.200Z,23.79
2022-08-19T06:02:26.878Z,23.85
2022-08-19T06:08:11.958Z,23.86
2022-08-19T06:13:57.215Z,23.87
2022-08-19T06:19:43.542Z,23.9
2022-08-19T06:25:30.410Z,24.08
2022-08-19T06:31:15.387Z,24.18
2022-08-19T06:37:00.755Z,24.43
2022-08-19T06:42:54.607Z,24.45
2022-08-19T06:48:44.966Z,24.61
2022-08-19T06:54:30.685Z,24.8
2022-08-19T07:06:41.451Z,25.18
2022-08-19T07:12:20.866Z,25.43
2022-08-19T07:18:08.063Z,25.49
2022-08-19T07:23:55.535Z,25.57
2022-08-19T07:29:38.846Z,25.62
2022-08-19T07:35:22.234Z,25.69
2022-08-19T07:41:05.850Z,25.77
2022-08-19T07:46:52.826Z,25.89
2022-08-19T07:52:36.879Z,25.97
2022-08-19T07:58:21.513Z,26.04
2022-08-19T08:04:04.910Z,26.22
2022-08-19T08:09:51.343Z,26.18
2022-08-19T08:15:42.042Z,26.38
2022-08-19T08:21:27.044Z,26.3
2022-08-19T08:27:11.975Z,26.32
2022-08-19T08:33:03.321Z,26.25
2022-08-19T08:38:47.114Z,26.15
2022-08-19T08:44:36.141Z,26.02
2022-08-19T08:50:28.322Z,26.03
2022-08-19T08:56:12.180Z,26.19
2022-08-19T09:01:59.533Z,26.33
2022-08-19T09:07:49.072Z,26.42
2022-08-19T09:13:39.717Z,26.5
2022-08-19T09:19:23.103Z,26.41
2022-08-19T09:25:11.334Z,26.35
2022-08-19T09:30:55.730Z,26.43
2022-08-19T09:36:40.461Z,26.63
2022-08-19T09:42:30.201Z,26.83
2022-08-19T09:48:18.975Z,27.07
2022-08-19T09:54:07.282Z,27.21
2022-08-19T10:00:00.974Z,27.54
2022-08-19T10:05:44.215Z,27.92
2022-08-19T10:11:40.066Z,28.19
2022-08-19T10:17:35.962Z,28.62
2022-08-19T10:23:26.541Z,28.69
2022-08-19T10:29:32.423Z,28.68
2022-08-19T10:35:16.178Z,28.84
2022-08-19T10:41:14.799Z,29.55
2022-08-19T10:46:58.131Z,30.07
2022-08-19T10:52:48.861Z,30.02
2022-08-19T10:58:37.477Z,30.28
2022-08-19T11:04:21.518Z,30.39
2022-08-19T11:10:13.307Z,30.48
2022-08-19T11:16:07.784Z,30.91
2022-08-19T11:21:53.063Z,30.43
2022-08-19T11:27:44.323Z,30.41
2022-08-19T11:33:29.439Z,30.6
2022-08-19T11:39:14.940Z,30.9
2022-08-19T11:44:58.074Z,30.58
2022-08-19T11:50:41.543Z,30.84
2022-08-19T11:56:25.458Z,31.11
2022-08-19T12:02:08.851Z,31.25
2022-08-19T12:07:52.320Z,31.36
2022-08-19T12:13:38.099Z,31.35
2022-08-19T12:19:21.808Z,31.45
2022-08-19T12:25:06.780Z,31.31
2022-08-19T12:30:52.393Z,31.25
2022-08-19T12:36:38.877Z,31.33
2022-08-19T12:42:22.307Z,31.68
2022-08-19T12:48:31.431Z,32.19
2022-08-19T12:54:09.255Z,32.2
2022-08-19T12:59:56.406Z,31.97
2022-08-19T13:05:41.070Z,32.32
2022-08-19T13:11:24.598Z,32.53
2022-08-19T13:17:08.717Z,32.88
2022-08-19T13:22:54.240Z,33.12
2022-08-19T13:28:38.095Z,33.56
2022-08-19T13:34:27.593Z,33.62
2022-08-19T13:40:16.604Z,33.97
2022-08-19T13:46:07.018Z,33.9
2022-08-19T13:51:50.666Z,33.47
2022-08-19T13:57:33.990Z,33.44
2022-08-19T14:03:17.439Z,33.4
2022-08-19T14:09:02.174Z,33.55
2022-08-19T14:14:45.357Z,33.43
2022-08-19T14:20:30.823Z,33.18
2022-08-19T14:26:16.223Z,33.48
2022-08-19T14:31:59.440Z,33.82
2022-08-19T14:37:45.860Z,33.31
2022-08-19T14:43:33.376Z,32.91
2022-08-19T14:49:18.490Z,32.75
2022-08-19T14:55:14.394Z,32.99
2022-08-19T15:00:58.751Z,32.91
2022-08-19T15:06:42.530Z,32.68
2022-08-19T15:12:26.612Z,32.51
2022-08-19T15:18:10.839Z,32.04
2022-08-19T15:23:54.501Z,31.72
2022-08-19T15:29:37.826Z,31.43
2022-08-19T15:35:22.946Z,31.77
2022-08-19T15:41:06.395Z,31.94
2022-08-19T15:46:50.305Z,32.25
2022-08-19T15:52:33.999Z,31.95
2022-08-19T15:58:30.848Z,31.56
2022-08-19T16:04:16.155Z,31.26
2022-08-19T16:10:26.008Z,31.21
2022-08-19T16:16:04.989Z,31.25
2022-08-19T16:21:49.466Z,31.31
2022-08-19T16:27:32.741Z,31.01
2022-08-19T16:33:19.981Z,30.85
2022-08-19T16:39:05.447Z,31.04
2022-08-19T16:44:48.730Z,30.98
2022-08-19T16:50:48.572Z,30.87
2022-08-19T16:56:31.014Z,30.61
2022-08-19T17:02:14.278Z,30.33
2022-08-19T17:07:57.549Z,30.15
2022-08-19T17:13:40.931Z,30.02
2022-08-19T17:19:29.275Z,29.77
2022-08-19T17:25:12.951Z,29.62
2022-08-19T17:30:56.706Z,29.52
2022-08-19T17:36:41.348Z,29.38
2022-08-19T17:42:24.732Z,29.26
2022-08-19T17:48:08.762Z,29.13
2022-08-19T17:53:52.675Z,28.94
2022-08-19T17:59:36.132Z,28.68
2022-08-19T18:05:21.590Z,28.51
2022-08-19T18:11:05.102Z,28.42
2022-08-19T18:16:48.457Z,28.32
2022-08-19T18:22:36.333Z,28.16
2022-08-19T18:28:20.745Z,28.06
2022-08-19T18:34:04.238Z,27.96
2022-08-19T18:39:48.812Z,27.77
2022-08-19T18:45:32.640Z,27.62
2022-08-19T18:51:17.798Z,27.52
2022-08-19T18:57:03.386Z,27.32
2022-08-19T19:02:47.905Z,27.18
2022-08-19T19:08:31.175Z,27.04
2022-08-19T19:14:32.647Z,26.94
2022-08-19T19:20:20.242Z,26.87
2022-08-19T19:26:12.286Z,26.77
2022-08-19T19:31:55.559Z,26.67
2022-08-19T19:37:38.986Z,26.66
2022-08-19T19:43:22.260Z,26.73
2022-08-19T19:49:06.759Z,26.8
2022-08-19T19:54:50.143Z,26.85
2022-08-19T20:00:34.843Z,26.86
2022-08-19T20:06:18.671Z,26.88
2022-08-19T20:12:01.941Z,26.89
2022-08-19T20:17:45.210Z,26.87
2022-08-19T20:23:28.585Z,26.85
2022-08-19T20:29:13.935Z,26.81
2022-08-19T20:35:15.719Z,26.82
2022-08-19T20:41:00.384Z,26.78
2022-08-19T20:46:54.323Z,26.74
2022-08-19T20:52:44.531Z,26.74
2022-08-19T20:58:36.067Z,26.71
2022-08-19T21:04:20.186Z,26.67
2022-08-19T21:10:05.250Z,26.72
2022-08-19T21:15:48.596Z,26.69
2022-08-19T21:21:31.933Z,26.63
2022-08-19T21:27:16.410Z,26.59
2022-08-19T21:33:00.264Z,26.6
2022-08-19T21:38:43.815Z,26.58
2022-08-19T21:44:27.096Z,26.54
2022-08-19T21:50:11.182Z,26.55
2022-08-19T21:55:54.557Z,26.51
2022-08-19T22:01:38.407Z,26.46
2022-08-19T22:07:31.719Z,26.45
2022-08-19T22:13:16.235Z,26.39
2022-08-19T22:19:00.002Z,26.33
2022-08-19T22:24:43.262Z,26.29
2022-08-19T22:30:26.903Z,26.25
2022-08-19T22:36:16.575Z,26.24
2022-08-19T22:42:01.339Z,26.21
2022-08-19T22:47:44.686Z,26.16
2022-08-19T22:53:27.937Z,26.1
2022-08-19T22:59:11.275Z,26.07
2022-08-19T23:04:54.515Z,26.04
2022-08-19T23:10:37.822Z,26.03
2022-08-19T23:16:22.451Z,25.97
2022-08-19T23:22:08.714Z,25.96
2022-08-19T23:27:56.853Z,25.94
2022-08-19T23:33:46.745Z,25.95
2022-08-19T23:39:34.794Z,25.95
2022-08-19T23:45:23.747Z,25.89
2022-08-19T23:51:10.655Z,25.87
2022-08-19T23:56:54.118Z,25.83
